Terminal Aerodrome Forecast
Issued by NWS Jackson, KY

Home | Current Version | Previous Version | Text Only | Print | Product List | Glossary On
Versions: 1 2 3 4 5 6 7 8 9 10 11 12 13 14 15 16 17 18 19 20 21
050
FTUS43 KJKL 230524
TAFLOZ
TAF
KLOZ 230524Z 2306/2406 04009KT P6SM -RA BKN009 BKN016 OVC050
     FM231200 34011KT 1SM SHRA OVC003
     FM231900 32013KT 3SM -SHRA OVC003
     FM232300 31012KT P6SM VCSH OVC008=

USA.gov is the U.S. government's official web portal to all federal, state and local government web resources and services.